createdAt,value
2022-12-12T00:02:00.715Z,36.30
2022-12-12T00:07:02.370Z,32.90
2022-12-12T00:12:05.337Z,33.73
2022-12-12T00:17:07.006Z,32.67
2022-12-12T00:22:09.175Z,34.83
2022-12-12T00:27:10.923Z,35.07
2022-12-12T00:32:12.592Z,35.23
2022-12-12T00:37:14.271Z,31.30
2022-12-12T00:42:16.784Z,33.87
2022-12-12T00:47:18.470Z,35.20
2022-12-12T00:52:20.261Z,32.37
2022-12-12T00:57:21.931Z,32.60
2022-12-12T01:02:28.073Z,33.40
2022-12-12T01:07:30.238Z,37.30
2022-12-12T01:12:32.095Z,36.37
2022-12-12T01:17:37.839Z,34.20
2022-12-12T01:22:39.526Z,36.50
2022-12-12T01:27:42.046Z,39.10
2022-12-12T01:32:43.695Z,33.03
2022-12-12T01:37:45.551Z,35.23
2022-12-12T01:42:48.050Z,35.67
2022-12-12T01:47:49.700Z,31.67
2022-12-12T01:52:51.390Z,35.40
2022-12-12T01:57:54.917Z,30.57
2022-12-12T02:02:57.084Z,36.13
2022-12-12T02:08:01.440Z,40.00
2022-12-12T02:13:08.095Z,37.13
2022-12-12T02:18:18.466Z,36.30
2022-12-12T02:24:05.496Z,33.07
2022-12-12T02:29:31.647Z,33.27
2022-12-12T02:35:00.686Z,31.40
2022-12-12T02:40:24.086Z,30.13
2022-12-12T02:45:31.666Z,40.77
2022-12-12T02:50:35.307Z,35.30
2022-12-12T02:55:37.137Z,35.07
2022-12-12T03:00:54.408Z,38.87
2022-12-12T03:06:23.797Z,38.40
2022-12-12T03:11:56.364Z,38.83
2022-12-12T03:16:57.981Z,41.10
2022-12-12T03:22:24.014Z,39.23
2022-12-12T03:28:05.256Z,37.37
2022-12-12T03:33:13.918Z,42.37
2022-12-12T03:38:26.758Z,38.87
2022-12-12T03:43:33.903Z,41.07
2022-12-12T03:48:45.815Z,40.17
2022-12-12T03:53:53.669Z,37.90
2022-12-12T03:59:15.022Z,37.30
2022-12-12T04:04:32.782Z,38.53
2022-12-12T04:09:53.333Z,32.70
2022-12-12T04:15:00.868Z,33.23
2022-12-12T04:20:35.499Z,32.20
2022-12-12T04:26:20.136Z,34.40
2022-12-12T04:31:27.117Z,35.57
2022-12-12T04:36:31.545Z,33.77
2022-12-12T04:41:37.252Z,34.20
2022-12-12T04:46:41.382Z,27.17
2022-12-12T04:51:47.349Z,34.47
2022-12-12T04:56:55.111Z,26.30
2022-12-12T05:02:18.046Z,31.63
2022-12-12T05:08:15.177Z,25.93
2022-12-12T05:13:19.306Z,32.57
2022-12-12T05:18:21.852Z,30.50
2022-12-12T05:23:23.525Z,26.60
2022-12-12T05:28:25.179Z,32.47
2022-12-12T05:33:26.835Z,30.53
2022-12-12T05:38:28.489Z,29.00
2022-12-12T05:43:30.467Z,29.77
2022-12-12T05:48:32.620Z,32.00
2022-12-12T05:53:42.012Z,36.30
2022-12-12T05:58:44.359Z,34.00
2022-12-12T06:03:46.141Z,24.73
2022-12-12T06:08:47.886Z,33.93
2022-12-12T06:13:49.556Z,32.33
2022-12-12T06:18:52.814Z,32.07
2022-12-12T06:23:54.684Z,33.93
2022-12-12T06:28:56.348Z,32.23
2022-12-12T06:33:58.021Z,32.77
2022-12-12T06:39:01.602Z,34.30
2022-12-12T06:44:03.336Z,34.37
2022-12-12T06:49:09.713Z,33.27
2022-12-12T06:54:16.186Z,36.80
2022-12-12T06:59:17.915Z,37.20
2022-12-12T07:04:20.470Z,33.97
2022-12-12T07:09:22.200Z,36.53
2022-12-12T07:14:23.872Z,31.83
2022-12-12T07:19:26.435Z,28.73
2022-12-12T07:24:28.102Z,30.90
2022-12-12T07:29:29.820Z,27.60
2022-12-12T07:34:32.597Z,31.87
2022-12-12T07:39:34.692Z,28.43
2022-12-12T07:44:36.400Z,29.87
2022-12-12T07:49:38.100Z,25.63
2022-12-12T07:54:39.811Z,21.47
2022-12-12T07:59:41.541Z,21.87
2022-12-12T08:04:43.238Z,25.50
2022-12-12T08:09:44.932Z,21.30
2022-12-12T08:14:46.760Z,22.70
2022-12-12T08:19:48.484Z,26.37
2022-12-12T08:24:50.386Z,21.03
2022-12-12T08:29:53.163Z,21.43
2022-12-12T08:34:58.573Z,23.73
2022-12-12T08:40:00.325Z,24.43
2022-12-12T08:45:02.077Z,25.50
2022-12-12T08:50:05.039Z,22.87
2022-12-12T08:55:06.968Z,23.83
2022-12-12T09:00:09.426Z,22.83
2022-12-12T09:05:11.490Z,21.77
2022-12-12T09:10:13.299Z,19.67
2022-12-12T09:15:15.421Z,23.87
2022-12-12T09:20:17.491Z,22.20
2022-12-12T09:25:19.479Z,22.33
2022-12-12T09:30:22.046Z,23.60
2022-12-12T09:35:23.712Z,23.10
2022-12-12T09:40:53.345Z,24.00
2022-12-12T09:45:55.847Z,25.40
2022-12-12T09:50:57.559Z,24.17
2022-12-12T09:56:02.089Z,20.37
2022-12-12T10:01:07.609Z,23.67
2022-12-12T10:06:36.369Z,23.93
2022-12-12T10:11:52.071Z,19.80
2022-12-12T10:16:58.287Z,17.17
2022-12-12T10:22:24.131Z,23.20
2022-12-12T10:27:26.152Z,21.87
2022-12-12T10:32:51.993Z,23.67
2022-12-12T10:38:29.652Z,21.43
2022-12-12T10:43:51.489Z,23.50
2022-12-12T10:48:54.260Z,22.17
2022-12-12T10:53:56.051Z,24.30
2022-12-12T10:59:01.955Z,22.37
2022-12-12T11:04:04.701Z,20.88
2022-12-12T11:09:17.670Z,22.93
2022-12-12T11:14:31.197Z,20.67
2022-12-12T11:19:38.369Z,22.23
2022-12-12T11:24:45.364Z,23.50
2022-12-12T11:29:51.553Z,25.73
2022-12-12T11:35:00.307Z,24.67
2022-12-12T11:40:02.419Z,25.87
2022-12-12T11:45:10.545Z,21.27
2022-12-12T11:50:22.901Z,22.67
2022-12-12T11:55:46.521Z,25.60
2022-12-12T12:00:58.348Z,28.95
2022-12-12T12:06:15.166Z,22.53
2022-12-12T12:11:25.104Z,24.97
2022-12-12T12:16:32.533Z,20.77
2022-12-12T12:21:56.182Z,23.67
2022-12-12T12:27:02.503Z,24.20
2022-12-12T12:32:18.731Z,22.57
2022-12-12T12:37:58.063Z,25.73
2022-12-12T12:43:17.667Z,21.30
2022-12-12T12:48:30.478Z,22.50
2022-12-12T12:53:35.764Z,25.97
2022-12-12T12:58:45.580Z,25.80
2022-12-12T13:03:58.758Z,22.33
2022-12-12T13:09:13.606Z,21.73
2022-12-12T13:14:45.802Z,22.40
2022-12-12T13:19:53.504Z,23.17
2022-12-12T13:25:22.949Z,21.70
2022-12-12T13:30:36.888Z,24.00
2022-12-12T13:35:51.128Z,24.97
2022-12-12T13:41:06.383Z,23.00
2022-12-12T13:46:27.330Z,22.57
2022-12-12T13:51:31.040Z,21.97
2022-12-12T13:56:57.609Z,24.63
2022-12-12T14:02:19.156Z,22.40
2022-12-12T14:07:25.678Z,19.83
2022-12-12T14:12:32.031Z,19.07
2022-12-12T14:17:42.867Z,21.97
2022-12-12T14:22:44.878Z,16.97
2022-12-12T14:27:49.335Z,18.60
2022-12-12T14:33:18.131Z,19.33
2022-12-12T14:38:41.455Z,20.67
2022-12-12T14:44:37.260Z,19.37
2022-12-12T14:49:17.407Z,17.13
2022-12-12T14:54:22.306Z,16.70
2022-12-12T14:59:29.591Z,18.37
2022-12-12T15:04:34.871Z,17.47
2022-12-12T15:09:39.868Z,20.23
2022-12-12T15:15:02.044Z,25.40
2022-12-12T15:20:17.459Z,19.67
2022-12-12T15:25:25.308Z,25.60
2022-12-12T15:30:45.593Z,25.30
2022-12-12T15:36:01.501Z,23.00
2022-12-12T15:41:11.183Z,26.37
2022-12-12T15:46:15.682Z,27.50
2022-12-12T15:51:24.593Z,24.67
2022-12-12T15:56:31.608Z,25.77
2022-12-12T16:01:33.415Z,32.73
2022-12-12T16:06:44.475Z,25.43
2022-12-12T16:11:50.305Z,29.07
2022-12-12T16:17:04.266Z,28.27
2022-12-12T16:22:31.436Z,30.57
2022-12-12T16:27:33.893Z,31.73
2022-12-12T16:32:36.049Z,29.27
2022-12-12T16:37:37.711Z,31.10
2022-12-12T16:42:39.462Z,28.30
2022-12-12T16:47:41.143Z,31.63
2022-12-12T16:52:42.892Z,27.43
2022-12-12T16:57:44.546Z,29.33
2022-12-12T17:02:46.408Z,27.57
2022-12-12T17:07:48.130Z,26.03
2022-12-12T17:12:51.175Z,28.13
2022-12-12T17:17:53.908Z,25.43
2022-12-12T17:22:56.130Z,29.77
2022-12-12T17:27:58.245Z,28.57
2022-12-12T17:33:18.215Z,31.03
2022-12-12T17:38:19.915Z,29.17
2022-12-12T17:43:22.175Z,31.23
2022-12-12T17:48:23.934Z,35.30
2022-12-12T17:53:25.989Z,36.80
2022-12-12T17:58:32.126Z,30.37
2022-12-12T18:03:33.830Z,30.57
2022-12-12T18:08:36.736Z,28.63
2022-12-12T18:13:39.503Z,28.30
2022-12-12T18:18:41.628Z,32.25
2022-12-12T18:23:43.695Z,27.87
2022-12-12T18:28:45.365Z,33.93
2022-12-12T18:33:47.345Z,30.10
2022-12-12T18:38:49.485Z,32.17
2022-12-12T18:43:51.168Z,31.17
2022-12-12T18:48:52.964Z,39.80
2022-12-12T18:53:59.832Z,38.47
2022-12-12T18:59:02.369Z,39.33
2022-12-12T19:04:11.702Z,36.73
2022-12-12T19:09:17.462Z,36.53
2022-12-12T19:14:19.227Z,41.17
2022-12-12T19:19:21.170Z,44.77
2022-12-12T19:24:22.845Z,31.70
2022-12-12T19:29:24.548Z,35.03
2022-12-12T19:34:26.299Z,37.40
2022-12-12T19:39:28.212Z,40.43
2022-12-12T19:44:29.951Z,36.50
2022-12-12T19:49:31.707Z,37.03
2022-12-12T19:54:33.364Z,32.20
2022-12-12T19:59:35.294Z,33.83
2022-12-12T20:04:39.370Z,25.03
2022-12-12T20:09:41.034Z,29.50
2022-12-12T20:14:42.717Z,24.27
2022-12-12T20:19:47.292Z,33.90
2022-12-12T20:24:49.045Z,27.17
2022-12-12T20:29:50.718Z,28.53
2022-12-12T20:34:53.057Z,33.33
2022-12-12T20:39:54.752Z,24.63
2022-12-12T20:44:56.399Z,22.73
2022-12-12T20:49:58.085Z,20.77
2022-12-12T20:54:59.791Z,25.17
2022-12-12T21:00:01.438Z,32.53
2022-12-12T21:05:05.619Z,24.87
2022-12-12T21:10:07.588Z,29.10
2022-12-12T21:15:09.627Z,25.57
2022-12-12T21:20:11.593Z,28.27
2022-12-12T21:25:13.566Z,26.40
2022-12-12T21:30:15.415Z,23.37
2022-12-12T21:35:17.254Z,37.13
2022-12-12T21:40:19.244Z,27.97
2022-12-12T21:45:20.926Z,26.33
2022-12-12T21:50:27.484Z,25.80
2022-12-12T21:55:32.157Z,32.38
2022-12-12T22:00:39.861Z,31.87
2022-12-12T22:05:41.544Z,26.83
2022-12-12T22:10:44.126Z,25.40
2022-12-12T22:15:56.499Z,23.20
2022-12-12T22:21:05.736Z,25.23
2022-12-12T22:26:23.709Z,26.27
2022-12-12T22:31:28.389Z,24.40
2022-12-12T22:36:40.137Z,31.53
2022-12-12T22:41:41.854Z,26.30
2022-12-12T22:46:45.402Z,27.20
2022-12-12T22:51:48.747Z,25.60
2022-12-12T22:56:50.824Z,26.17
2022-12-12T23:01:52.609Z,27.05
2022-12-12T23:06:54.313Z,25.87
2022-12-12T23:11:56.126Z,23.13
2022-12-12T23:16:57.824Z,24.47
2022-12-12T23:22:00.000Z,23.30
2022-12-12T23:27:02.071Z,23.70
2022-12-12T23:32:04.013Z,21.00
2022-12-12T23:37:05.743Z,23.43
2022-12-12T23:42:07.616Z,20.83
2022-12-12T23:47:09.295Z,27.67
2022-12-12T23:52:11.037Z,23.33
2022-12-12T23:57:12.730Z,18.87
